createdAt,value
2019-06-10T00:00:57.657Z,18.58
2019-06-10T00:06:23.051Z,18.55
2019-06-10T00:11:48.311Z,18.48
2019-06-10T00:17:13.955Z,18.20
2019-06-10T00:22:40.782Z,18.14
2019-06-10T00:28:07.343Z,18.16
2019-06-10T00:33:33.312Z,18.25
2019-06-10T00:38:59.363Z,18.26
2019-06-10T00:44:25.210Z,18.09
2019-06-10T00:49:51.435Z,18.06
2019-06-10T00:55:17.403Z,17.82
2019-06-10T01:00:43.051Z,17.83
2019-06-10T01:06:08.543Z,17.79
2019-06-10T01:11:34.318Z,17.82
2019-06-10T01:17:01.260Z,17.90
2019-06-10T01:22:27.126Z,18.00
2019-06-10T01:27:52.455Z,17.90
2019-06-10T01:33:18.399Z,17.90
2019-06-10T01:38:43.341Z,18.13
2019-06-10T01:44:11.524Z,18.28
2019-06-10T01:49:36.544Z,18.12
2019-06-10T01:55:01.880Z,17.97
2019-06-10T02:00:32.009Z,17.88
2019-06-10T02:05:51.641Z,17.89
2019-06-10T02:11:18.951Z,17.71
2019-06-10T02:16:44.319Z,17.65
2019-06-10T02:22:10.749Z,17.75
2019-06-10T02:27:36.816Z,17.48
2019-06-10T02:33:02.723Z,17.58
2019-06-10T02:38:37.769Z,17.67
2019-06-10T02:43:55.886Z,17.61
2019-06-10T02:49:42.708Z,17.69
2019-06-10T02:54:49.083Z,17.68
2019-06-10T03:00:24.732Z,17.61
2019-06-10T03:05:46.774Z,17.55
2019-06-10T03:11:14.087Z,17.62
2019-06-10T03:16:42.169Z,17.64
2019-06-10T03:22:07.624Z,17.82
2019-06-10T03:27:32.920Z,17.99
2019-06-10T03:32:58.322Z,17.94
2019-06-10T03:38:26.988Z,17.97
2019-06-10T03:43:52.967Z,18.10
2019-06-10T03:49:19.138Z,18.08
2019-06-10T03:54:44.209Z,18.12
2019-06-10T04:00:11.295Z,18.20
2019-06-10T04:05:37.331Z,17.98
2019-06-10T04:11:03.237Z,18.08
2019-06-10T04:16:28.371Z,17.89
2019-06-10T04:21:53.925Z,18.02
2019-06-10T04:27:19.782Z,18.14
2019-06-10T04:32:46.127Z,18.19
2019-06-10T04:38:13.118Z,18.17
2019-06-10T04:43:38.307Z,18.26
2019-06-10T04:49:03.334Z,18.53
2019-06-10T04:54:29.908Z,18.79
2019-06-10T04:59:55.685Z,18.66
2019-06-10T05:05:23.654Z,18.78
2019-06-10T05:10:49.570Z,19.05
2019-06-10T05:16:14.918Z,19.08
2019-06-10T05:21:42.427Z,19.10
2019-06-10T05:27:07.407Z,19.45
2019-06-10T05:32:33.360Z,19.49
2019-06-10T05:37:59.290Z,19.58
2019-06-10T05:43:25.248Z,19.69
2019-06-10T05:48:52.605Z,19.65
2019-06-10T05:54:18.660Z,19.96
2019-06-10T05:59:44.291Z,20.10
2019-06-10T06:05:12.888Z,20.26
2019-06-10T06:10:38.028Z,20.29
2019-06-10T06:16:03.682Z,20.38
2019-06-10T06:21:34.494Z,20.32
2019-06-10T06:26:56.782Z,20.60
2019-06-10T06:32:23.638Z,20.69
2019-06-10T06:37:48.837Z,20.84
2019-06-10T06:43:14.615Z,20.78
2019-06-10T06:48:42.954Z,20.85
2019-06-10T06:54:06.400Z,20.75
2019-06-10T06:59:33.840Z,20.92
2019-06-10T07:04:58.290Z,21.24
2019-06-10T07:10:24.545Z,21.36
2019-06-10T07:16:03.036Z,21.72
2019-06-10T07:21:28.091Z,21.95
2019-06-10T07:26:54.973Z,21.81
2019-06-10T07:32:22.746Z,22.16
2019-06-10T07:37:49.310Z,22.46
2019-06-10T07:43:14.252Z,22.44
2019-06-10T07:48:42.169Z,22.92
2019-06-10T07:54:07.452Z,23.11
2019-06-10T07:59:33.833Z,23.72
2019-06-10T08:04:59.042Z,23.84
2019-06-10T08:10:24.893Z,23.93
2019-06-10T08:15:49.923Z,24.26
2019-06-10T08:21:15.647Z,23.76
2019-06-10T08:26:43.978Z,24.14
2019-06-10T08:32:08.000Z,24.05
2019-06-10T08:37:33.779Z,24.86
2019-06-10T08:42:58.633Z,24.99
2019-06-10T08:48:24.435Z,25.07
2019-06-10T08:53:50.113Z,25.07
2019-06-10T08:59:16.427Z,25.39
2019-06-10T09:04:45.429Z,25.78
2019-06-10T09:10:13.508Z,25.96
2019-06-10T09:15:38.749Z,26.05
2019-06-10T09:21:04.503Z,26.11
2019-06-10T09:26:29.835Z,25.92
2019-06-10T09:31:55.917Z,26.18
2019-06-10T09:37:23.352Z,26.85
2019-06-10T09:42:52.374Z,27.41
2019-06-10T09:48:17.332Z,27.43
2019-06-10T09:53:50.146Z,27.72
2019-06-10T09:59:12.396Z,28.60
2019-06-10T10:04:37.698Z,28.21
2019-06-10T10:10:05.488Z,27.71
2019-06-10T10:15:34.525Z,27.81
2019-06-10T10:21:00.413Z,27.83
2019-06-10T10:26:25.050Z,27.82
2019-06-10T10:31:52.399Z,28.93
2019-06-10T10:37:16.935Z,29.51
2019-06-10T10:42:48.162Z,29.03
2019-06-10T10:48:09.428Z,29.89
2019-06-10T10:53:35.381Z,29.77
2019-06-10T10:58:58.841Z,29.95
2019-06-10T11:04:23.363Z,30.96
2019-06-10T11:09:48.444Z,29.85
2019-06-10T11:15:13.665Z,29.22
2019-06-10T11:20:37.326Z,29.28
2019-06-10T11:26:00.921Z,28.80
2019-06-10T11:31:24.172Z,29.23
2019-06-10T11:36:47.960Z,31.22
2019-06-10T11:42:13.243Z,30.78
2019-06-10T11:47:36.619Z,31.82
2019-06-10T11:53:01.429Z,30.87
2019-06-10T11:58:25.475Z,32.22
2019-06-10T12:03:48.765Z,30.50
2019-06-10T12:09:13.684Z,30.39
2019-06-10T12:14:37.590Z,30.71
2019-06-10T12:20:03.169Z,30.21
2019-06-10T12:25:35.032Z,31.13
2019-06-10T12:30:56.223Z,32.41
2019-06-10T12:36:18.618Z,33.10
2019-06-10T12:41:42.877Z,33.33
2019-06-10T12:47:08.367Z,33.80
2019-06-10T12:52:32.484Z,33.29
2019-06-10T12:57:56.313Z,32.13
2019-06-10T13:03:20.465Z,31.91
2019-06-10T13:08:46.588Z,31.62
2019-06-10T13:14:09.900Z,30.24
2019-06-10T13:19:34.392Z,30.72
2019-06-10T13:24:58.631Z,31.35
2019-06-10T13:30:25.558Z,31.39
2019-06-10T13:35:48.822Z,30.56
2019-06-10T13:41:12.127Z,31.09
2019-06-10T13:46:35.413Z,30.44
2019-06-10T13:51:59.359Z,32.20
2019-06-10T13:57:23.593Z,32.37
2019-06-10T14:02:46.870Z,31.44
2019-06-10T14:08:12.698Z,31.56
2019-06-10T14:13:34.792Z,33.90
2019-06-10T14:18:58.090Z,31.07
2019-06-10T14:24:22.848Z,31.89
2019-06-10T14:29:46.343Z,32.99
2019-06-10T14:35:15.270Z,32.61
2019-06-10T14:40:35.955Z,32.83
2019-06-10T14:45:59.185Z,34.04
2019-06-10T14:51:23.038Z,33.22
2019-06-10T14:56:53.487Z,34.04
2019-06-10T15:02:12.895Z,33.71
2019-06-10T15:07:36.732Z,35.23
2019-06-10T15:13:02.168Z,34.49
2019-06-10T15:18:25.109Z,34.31
2019-06-10T15:23:48.495Z,33.99
2019-06-10T15:29:15.589Z,33.42
2019-06-10T15:34:36.958Z,31.69
2019-06-10T15:40:00.353Z,32.19
2019-06-10T15:45:24.581Z,33.56
2019-06-10T15:50:47.832Z,32.55
2019-06-10T15:56:22.090Z,33.96
2019-06-10T16:01:36.165Z,33.55
2019-06-10T16:06:59.478Z,33.51
2019-06-10T16:12:26.557Z,34.68
2019-06-10T16:17:48.281Z,33.75
2019-06-10T16:23:12.203Z,32.48
2019-06-10T16:28:36.567Z,32.71
2019-06-10T16:33:59.855Z,31.67
2019-06-10T16:39:26.594Z,30.88
2019-06-10T16:44:49.203Z,30.93
2019-06-10T16:50:12.579Z,30.83
2019-06-10T16:55:35.967Z,30.35
2019-06-10T17:00:59.096Z,30.56
2019-06-10T17:06:23.978Z,30.82
2019-06-10T17:11:47.400Z,31.59
2019-06-10T17:17:12.722Z,31.45
2019-06-10T17:22:35.723Z,30.71
2019-06-10T17:28:16.219Z,30.69
2019-06-10T17:33:27.223Z,30.08
2019-06-10T17:38:52.217Z,29.65
2019-06-10T17:44:15.983Z,29.62
2019-06-10T17:49:38.992Z,29.25
2019-06-10T17:55:03.388Z,29.07
2019-06-10T18:00:27.866Z,29.00
2019-06-10T18:05:53.288Z,28.86
2019-06-10T18:11:16.774Z,28.75
2019-06-10T18:16:42.534Z,28.65
2019-06-10T18:22:05.092Z,28.60
2019-06-10T18:27:29.000Z,28.90
2019-06-10T18:32:52.640Z,28.68
2019-06-10T18:38:16.769Z,28.61
2019-06-10T18:43:40.101Z,28.53
2019-06-10T18:49:03.401Z,28.38
2019-06-10T18:54:25.121Z,28.24
2019-06-10T18:59:46.871Z,28.24
2019-06-10T19:05:08.592Z,28.11
2019-06-10T19:10:34.338Z,28.00
2019-06-10T19:15:56.285Z,28.15
2019-06-10T19:21:18.024Z,27.87
2019-06-10T19:26:44.793Z,27.67
2019-06-10T19:32:04.232Z,27.50
2019-06-10T19:37:26.005Z,27.41
2019-06-10T19:42:47.731Z,27.37
2019-06-10T19:48:12.284Z,27.15
2019-06-10T19:53:34.582Z,27.09
2019-06-10T19:58:56.577Z,26.96
2019-06-10T20:04:22.614Z,26.81
2019-06-10T20:09:46.233Z,26.80
2019-06-10T20:15:07.861Z,26.67
2019-06-10T20:20:29.646Z,26.53
2019-06-10T20:25:52.748Z,26.39
2019-06-10T20:31:14.851Z,26.23
2019-06-10T20:36:37.377Z,26.11
2019-06-10T20:41:59.193Z,25.92
2019-06-10T20:47:22.950Z,25.80
2019-06-10T20:52:46.071Z,25.86
2019-06-10T20:58:07.952Z,25.47
2019-06-10T21:03:32.185Z,25.41
2019-06-10T21:08:54.785Z,25.17
2019-06-10T21:14:16.652Z,25.08
2019-06-10T21:19:38.383Z,24.96
2019-06-10T21:25:02.484Z,24.92
2019-06-10T21:30:40.703Z,24.91
2019-06-10T21:35:54.812Z,24.69
2019-06-10T21:41:17.448Z,24.78
2019-06-10T21:46:43.147Z,24.77
2019-06-10T21:52:05.814Z,24.74
2019-06-10T21:57:29.226Z,24.58
2019-06-10T22:02:58.048Z,24.50
2019-06-10T22:08:17.486Z,24.42
2019-06-10T22:13:40.888Z,24.39
2019-06-10T22:19:04.390Z,24.44
2019-06-10T22:24:27.701Z,24.43
2019-06-10T22:29:51.913Z,24.43
2019-06-10T22:35:17.376Z,24.35
2019-06-10T22:40:42.599Z,24.35
2019-06-10T22:46:05.631Z,24.33
2019-06-10T22:51:28.886Z,24.31
2019-06-10T22:56:54.234Z,24.26
2019-06-10T23:02:17.129Z,24.25
2019-06-10T23:07:40.362Z,24.23
2019-06-10T23:13:03.643Z,24.11
2019-06-10T23:18:27.734Z,23.97
2019-06-10T23:23:53.860Z,23.96
2019-06-10T23:29:15.807Z,23.95
2019-06-10T23:34:39.085Z,23.87
2019-06-10T23:40:04.286Z,23.82
2019-06-10T23:45:27.507Z,23.77
2019-06-10T23:50:54.001Z,23.71
2019-06-10T23:56:15.790Z,23.70
